Time;durP1;ratioP1;P1;durP2;ratioP2;P2;SDS_P1;SDS_P2;PMS_P1;PMS_P2;Temp;Humidity;BMP_temperature;BMP_pressure;BME280_temperature;BME280_humidity;BME280_pressure;Samples;Min_cycle;Max_cycle;Signal;HPM_P1;HPM_P2
2021/06/18 00:02:15;;;;;;;7.07;2.80;;;23.60;72.20;;;;;;3512458;40;20137;-81
2021/06/18 00:04:43;;;;;;;4.63;2.90;;;23.50;72.40;;;;;;3515933;40;20060;-83
2021/06/18 00:07:11;;;;;;;4.38;2.72;;;23.50;72.70;;;;;;3516676;40;20079;-82
2021/06/18 00:09:41;;;;;;;5.40;3.10;;;23.40;72.90;;;;;;3515518;40;20072;-82
2021/06/18 00:12:10;;;;;;;4.55;3.10;;;23.40;73.20;;;;;;3524470;40;20059;-80
2021/06/18 00:14:38;;;;;;;5.00;2.95;;;23.40;73.60;;;;;;3525789;40;20028;-81
2021/06/18 00:17:09;;;;;;;4.22;3.13;;;23.30;73.90;;;;;;3523743;40;20043;-81
2021/06/18 00:19:38;;;;;;;5.00;2.85;;;23.30;74.30;;;;;;3515801;40;20031;-83
2021/06/18 00:22:05;;;;;;;4.85;3.17;;;23.20;74.60;;;;;;3530809;40;20059;-81
2021/06/18 00:24:33;;;;;;;9.23;3.20;;;23.20;74.90;;;;;;3523937;40;20055;-80
2021/06/18 00:27:02;;;;;;;;;;;23.20;75.30;;;;;;3532386;40;20291;-81
2021/06/18 00:29:32;;;;;;;5.32;3.10;;;23.10;75.60;;;;;;3516147;40;19975;-84
2021/06/18 00:32:01;;;;;;;5.80;3.10;;;23.10;76.00;;;;;;3520638;40;20092;-82
2021/06/18 00:34:29;;;;;;;6.40;2.97;;;23.00;76.30;;;;;;3515900;40;20068;-83
2021/06/18 00:36:58;;;;;;;4.53;2.72;;;23.00;76.80;;;;;;3524000;40;20059;-81
2021/06/18 00:39:29;;;;;;;6.85;3.15;;;23.00;77.10;;;;;;3520919;40;20048;-82
2021/06/18 00:41:57;;;;;;;5.60;3.23;;;22.90;77.40;;;;;;3519069;40;20044;-81
2021/06/18 00:44:24;;;;;;;7.90;3.20;;;22.90;77.70;;;;;;3529180;40;20296;-81
2021/06/18 00:46:52;;;;;;;6.07;3.10;;;22.90;78.00;;;;;;3535823;40;20055;-82
2021/06/18 00:49:21;;;;;;;6.53;3.28;;;22.90;78.30;;;;;;3521475;40;20076;-81
2021/06/18 00:51:52;;;;;;;6.47;3.50;;;22.90;78.70;;;;;;3505072;40;20131;-82
2021/06/18 00:54:29;;;;;;;4.50;2.97;;;22.90;79.00;;;;;;3524372;40;20091;-82
2021/06/18 00:57:01;;;;;;;4.53;3.00;;;22.80;79.30;;;;;;3512791;40;20098;-81
2021/06/18 00:59:29;;;;;;;6.47;3.25;;;22.80;79.70;;;;;;3515376;40;20079;-81
2021/06/18 01:01:57;;;;;;;4.97;3.23;;;22.80;79.80;;;;;;3528298;40;20062;-82
2021/06/18 01:04:27;;;;;;;6.00;3.27;;;22.80;80.10;;;;;;3524861;40;20091;-81
2021/06/18 01:07:04;;;;;;;5.78;3.17;;;22.70;80.30;;;;;;3520916;40;20087;-81
2021/06/18 01:09:42;;;;;;;6.60;3.08;;;22.70;80.70;;;;;;3512037;40;20100;-81
2021/06/18 01:12:16;;;;;;;5.15;2.92;;;22.70;81.00;;;;;;3506146;40;20082;-81
2021/06/18 01:14:55;;;;;;;5.97;3.47;;;22.70;81.30;;;;;;3525383;40;20613;-81
2021/06/18 01:17:28;;;;;;;5.15;3.10;;;22.70;81.60;;;;;;3506902;40;20068;-81
2021/06/18 01:20:18;;;;;;;5.50;3.20;;;22.60;81.90;;;;;;3530407;40;20318;-81
2021/06/18 01:22:48;;;;;;;6.65;3.20;;;22.60;82.50;;;;;;3511251;40;20095;-81
2021/06/18 01:25:26;;;;;;;4.93;2.83;;;22.60;83.00;;;;;;3511369;40;20050;-81
2021/06/18 01:28:00;;;;;;;5.88;3.20;;;22.50;83.70;;;;;;3522304;40;20084;-81
2021/06/18 01:30:32;;;;;;;5.00;3.10;;;22.50;83.50;;;;;;3516656;40;20076;-81
2021/06/18 01:33:03;;;;;;;5.97;3.63;;;22.40;83.80;;;;;;3513816;41;20327;-80
2021/06/18 01:35:36;;;;;;;5.95;3.30;;;22.40;84.30;;;;;;3520323;40;20439;-80
2021/06/18 01:38:09;;;;;;;5.60;2.90;;;22.30;84.90;;;;;;3510699;40;20343;-81
2021/06/18 01:40:37;;;;;;;9.60;3.80;;;22.30;85.20;;;;;;3519428;40;20091;-83
2021/06/18 01:43:07;;;;;;;5.30;3.05;;;22.30;85.70;;;;;;3499801;40;20475;-81
2021/06/18 01:45:41;;;;;;;7.60;3.22;;;22.30;86.30;;;;;;3514781;40;20068;-82
2021/06/18 01:48:12;;;;;;;5.45;3.50;;;22.30;86.80;;;;;;3519244;40;20095;-81
2021/06/18 01:50:41;;;;;;;5.85;3.35;;;22.30;87.50;;;;;;3519704;40;20075;-82
2021/06/18 01:53:11;;;;;;;7.55;3.22;;;22.20;88.10;;;;;;3515221;40;20115;-81
2021/06/18 01:55:43;;;;;;;5.63;3.13;;;22.20;88.70;;;;;;3519356;40;20399;-82
2021/06/18 01:58:14;;;;;;;5.45;3.03;;;22.10;89.30;;;;;;3516079;40;20076;-82
2021/06/18 02:00:46;;;;;;;5.50;3.13;;;22.10;89.90;;;;;;3519963;40;20091;-81
2021/06/18 02:09:15;;;;;;;8.07;3.40;;;22.00;90.90;;;;;;3527743;40;20044;-81
2021/06/18 02:11:48;;;;;;;5.68;3.60;;;21.90;91.20;;;;;;3521613;40;20076;-80
2021/06/18 02:14:19;;;;;;;6.43;3.45;;;21.90;91.50;;;;;;3502086;41;20072;-81
2021/06/18 02:16:52;;;;;;;7.40;3.65;;;21.90;91.80;;;;;;3495092;40;20096;-80
2021/06/18 02:19:24;;;;;;;9.75;4.03;;;21.90;92.10;;;;;;3508512;40;20091;-80
2021/06/18 02:21:55;;;;;;;6.55;3.80;;;21.80;92.30;;;;;;3508027;40;20057;-80
2021/06/18 02:24:28;;;;;;;6.22;3.92;;;21.80;92.50;;;;;;3522831;40;20080;-82
2021/06/18 02:26:56;;;;;;;6.60;3.65;;;21.80;92.90;;;;;;3516967;40;20293;-81
2021/06/18 02:29:24;;;;;;;9.52;4.00;;;21.80;93.20;;;;;;3513989;40;20080;-81
2021/06/18 02:31:59;;;;;;;10.13;5.63;;;21.70;93.40;;;;;;3505749;40;20230;-81
2021/06/18 02:34:29;;;;;;;6.70;3.53;;;21.70;93.80;;;;;;3510243;40;20087;-81
2021/06/18 02:36:57;;;;;;;7.15;3.97;;;21.70;93.90;;;;;;3513389;40;20085;-82
2021/06/18 02:39:25;;;;;;;7.40;4.72;;;21.60;94.10;;;;;;3505873;40;20084;-81
2021/06/18 02:41:52;;;;;;;8.35;4.80;;;21.50;94.50;;;;;;3513037;40;20068;-81
2021/06/18 02:44:20;;;;;;;7.35;4.00;;;21.50;94.70;;;;;;3503427;41;20084;-81
2021/06/18 02:46:55;;;;;;;9.27;4.50;;;21.50;95.00;;;;;;3511932;40;20083;-81
2021/06/18 02:49:35;;;;;;;6.70;4.20;;;21.50;95.30;;;;;;3513123;40;20085;-80
2021/06/18 02:52:09;;;;;;;6.45;3.33;;;21.40;95.70;;;;;;3513125;40;20411;-81
2021/06/18 02:54:43;;;;;;;5.93;3.55;;;21.40;95.90;;;;;;3513371;40;20075;-81
2021/06/18 02:57:19;;;;;;;9.60;4.20;;;21.40;96.40;;;;;;3509052;40;20095;-81
2021/06/18 02:59:53;;;;;;;8.88;3.50;;;21.20;96.80;;;;;;3512982;40;20095;-81
2021/06/18 03:02:25;;;;;;;9.68;4.03;;;21.20;97.10;;;;;;3513219;40;20071;-82
2021/06/18 03:04:56;;;;;;;6.07;3.70;;;21.20;97.50;;;;;;3521356;40;20091;-80
2021/06/18 03:07:28;;;;;;;7.25;3.60;;;21.20;97.80;;;;;;3508866;40;20060;-80
2021/06/18 03:10:01;;;;;;;10.23;3.55;;;21.20;98.00;;;;;;3517205;40;20079;-81
2021/06/18 03:12:33;;;;;;;6.13;3.20;;;21.20;98.20;;;;;;3523557;40;20138;-80
2021/06/18 03:15:05;;;;;;;6.93;3.72;;;21.20;98.50;;;;;;3522868;40;20067;-80
2021/06/18 03:17:36;;;;;;;7.72;3.80;;;21.20;98.60;;;;;;3531266;40;20083;-82
2021/06/18 03:20:14;;;;;;;7.95;4.43;;;21.20;98.90;;;;;;3522009;40;20072;-81
2021/06/18 03:22:43;;;;;;;13.15;5.57;;;21.30;99.00;;;;;;3514059;40;20067;-80
2021/06/18 03:25:15;;;;;;;16.25;8.05;;;21.20;99.10;;;;;;3522965;40;20150;-80
2021/06/18 03:27:45;;;;;;;9.02;5.95;;;21.20;99.40;;;;;;3522653;40;20071;-80
2021/06/18 03:30:19;;;;;;;9.45;4.32;;;21.20;99.60;;;;;;3528483;40;20091;-81
2021/06/18 03:32:49;;;;;;;6.18;3.40;;;21.10;99.80;;;;;;3522095;40;20083;-81
2021/06/18 03:35:20;;;;;;;7.10;4.13;;;21.10;99.90;;;;;;3521735;40;20075;-82
2021/06/18 03:37:49;;;;;;;8.73;3.95;;;21.20;99.90;;;;;;3528264;40;20434;-81
2021/06/18 03:40:20;;;;;;;6.03;4.00;;;21.20;99.90;;;;;;3533225;40;20407;-81
2021/06/18 03:42:51;;;;;;;8.13;3.78;;;21.20;99.90;;;;;;3513117;40;20420;-80
2021/06/18 03:45:21;;;;;;;7.88;4.05;;;21.20;99.90;;;;;;3521288;40;20067;-82
2021/06/18 03:47:50;;;;;;;7.57;3.97;;;21.20;99.90;;;;;;3527369;40;20068;-80
2021/06/18 03:50:23;;;;;;;13.55;4.43;;;21.20;99.90;;;;;;3515561;40;20080;-80
2021/06/18 03:52:51;;;;;;;10.90;4.25;;;21.20;99.90;;;;;;3523133;40;20390;-81
2021/06/18 03:55:19;;;;;;;8.93;4.17;;;21.30;99.90;;;;;;3514543;40;20107;-81
2021/06/18 03:57:51;;;;;;;8.20;4.38;;;21.30;99.90;;;;;;3522489;40;20330;-81
2021/06/18 04:00:20;;;;;;;9.52;4.13;;;21.20;99.90;;;;;;3522465;40;20078;-80
2021/06/18 04:02:49;;;;;;;7.78;4.57;;;21.20;99.90;;;;;;3538154;40;20083;-81
2021/06/18 04:05:22;;;;;;;11.32;4.30;;;21.20;99.90;;;;;;3531277;40;20072;-80
2021/06/18 04:07:52;;;;;;;8.88;4.68;;;21.20;99.90;;;;;;3512286;40;20087;-80
2021/06/18 04:10:21;;;;;;;6.50;4.43;;;21.30;99.90;;;;;;3515747;40;20095;-81
2021/06/18 04:12:51;;;;;;;7.93;4.60;;;21.30;99.90;;;;;;3519533;40;20076;-81
2021/06/18 04:15:22;;;;;;;9.10;4.15;;;21.30;99.90;;;;;;3512549;40;20091;-81
2021/06/18 04:17:52;;;;;;;12.73;4.70;;;21.40;99.90;;;;;;3512890;40;20091;-80
2021/06/18 04:20:26;;;;;;;6.57;3.72;;;21.50;99.90;;;;;;3501907;41;20080;-80
2021/06/18 04:22:54;;;;;;;10.25;4.18;;;21.70;99.90;;;;;;3513208;40;20083;-81
2021/06/18 04:25:23;;;;;;;11.57;4.93;;;21.80;99.80;;;;;;3512902;40;20091;-80
2021/06/18 04:27:52;;;;;;;6.05;3.78;;;21.80;99.90;;;;;;3512720;40;20314;-82
2021/06/18 04:30:23;;;;;;;7.38;4.05;;;21.90;99.60;;;;;;3511985;40;20068;-80
2021/06/18 04:32:51;;;;;;;8.15;3.83;;;21.90;99.40;;;;;;3518785;40;20100;-81
2021/06/18 04:35:19;;;;;;;8.15;4.20;;;21.90;99.40;;;;;;3528532;40;20091;-83
2021/06/18 04:37:49;;;;;;;9.10;3.73;;;22.00;99.30;;;;;;3512474;40;20071;-80
2021/06/18 04:40:17;;;;;;;7.47;3.95;;;21.90;99.30;;;;;;3504985;40;20092;-82
2021/06/18 04:42:46;;;;;;;11.48;4.30;;;22.00;99.30;;;;;;3513398;40;20091;-81
2021/06/18 04:45:19;;;;;;;6.53;3.67;;;22.00;99.40;;;;;;3512610;40;20319;-82
2021/06/18 04:47:46;;;;;;;8.88;3.90;;;22.10;99.20;;;;;;3504790;40;20072;-82
2021/06/18 04:50:16;;;;;;;6.85;3.40;;;22.10;99.30;;;;;;3512793;40;20087;-83
2021/06/18 04:52:47;;;;;;;6.80;3.40;;;22.20;99.00;;;;;;3504936;40;20098;-82
2021/06/18 04:55:18;;;;;;;10.25;4.15;;;22.20;99.00;;;;;;3521219;40;20055;-80
2021/06/18 04:57:49;;;;;;;11.20;4.00;;;22.20;98.90;;;;;;3513584;40;20090;-81
2021/06/18 05:00:18;;;;;;;;;;;22.20;98.80;;;;;;3505512;40;20092;-83
2021/06/18 05:02:48;;;;;;;10.90;3.65;;;22.30;98.70;;;;;;3512766;40;19988;-81
2021/06/18 05:05:16;;;;;;;5.30;3.80;;;22.40;98.60;;;;;;3525194;40;20063;-81
2021/06/18 05:07:51;;;;;;;6.60;3.65;;;22.60;98.40;;;;;;3505091;41;20080;-79
2021/06/18 05:10:19;;;;;;;10.27;3.53;;;22.70;97.90;;;;;;3506419;41;20408;-81
2021/06/18 05:12:50;;;;;;;6.78;3.95;;;23.00;97.40;;;;;;3508828;40;20083;-80
2021/06/18 05:15:19;;;;;;;9.35;4.13;;;23.20;97.00;;;;;;3516411;40;20060;-80
2021/06/18 05:17:46;;;;;;;;;;;23.40;96.50;;;;;;3509065;40;20083;-80
2021/06/18 05:20:15;;;;;;;10.40;3.60;;;23.40;96.30;;;;;;3525159;40;19971;-81
2021/06/18 05:22:42;;;;;;;;;;;23.40;96.20;;;;;;3506491;40;20087;-80
2021/06/18 05:25:16;;;;;;;11.90;3.88;;;23.50;96.10;;;;;;3505307;40;19978;-80
2021/06/18 05:27:44;;;;;;;8.32;3.88;;;23.50;96.00;;;;;;3512322;40;20067;-82
2021/06/18 05:30:14;;;;;;;11.93;3.75;;;23.60;96.00;;;;;;3513039;40;20099;-81
2021/06/18 05:32:42;;;;;;;9.65;3.78;;;23.60;95.80;;;;;;3513801;40;20068;-80
2021/06/18 05:35:11;;;;;;;8.13;3.20;;;23.60;95.70;;;;;;3506071;40;20079;-81
2021/06/18 05:37:42;;;;;;;6.93;3.40;;;23.70;95.50;;;;;;3532387;40;20320;-81
2021/06/18 05:40:10;;;;;;;7.15;3.58;;;23.80;95.50;;;;;;3514445;40;20084;-81
2021/06/18 05:42:39;;;;;;;;;;;23.90;95.40;;;;;;3503322;41;20367;-81
2021/06/18 05:45:09;;;;;;;9.50;3.60;;;24.00;95.30;;;;;;3511909;40;19978;-80
2021/06/18 05:47:39;;;;;;;7.68;3.28;;;24.10;95.10;;;;;;3504328;40;20084;-80
2021/06/18 05:50:10;;;;;;;7.57;3.80;;;24.20;94.50;;;;;;3512610;40;20076;-82
2021/06/18 05:52:40;;;;;;;9.85;3.70;;;24.30;94.30;;;;;;3519784;40;20072;-81
2021/06/18 05:55:09;;;;;;;5.77;3.50;;;24.30;93.90;;;;;;3503781;40;20092;-82
2021/06/18 05:57:38;;;;;;;7.88;4.05;;;24.50;93.60;;;;;;3520355;40;20306;-83
2021/06/18 06:00:08;;;;;;;5.93;3.40;;;24.60;93.30;;;;;;3521321;40;20091;-81
2021/06/18 06:02:39;;;;;;;8.23;3.88;;;24.70;92.70;;;;;;3513510;40;20392;-82
2021/06/18 06:05:07;;;;;;;6.10;3.50;;;24.90;92.50;;;;;;3512514;40;20072;-79
2021/06/18 06:07:35;;;;;;;10.38;3.20;;;24.90;92.20;;;;;;3506465;40;20391;-83
2021/06/18 06:10:04;;;;;;;11.48;3.70;;;25.00;92.30;;;;;;3541345;40;20071;-81
2021/06/18 06:12:34;;;;;;;8.82;5.00;;;25.10;91.90;;;;;;3529893;40;20087;-84
2021/06/18 06:15:08;;;;;;;9.20;3.92;;;25.10;92.10;;;;;;3533984;40;20080;-82
2021/06/18 06:17:36;;;;;;;10.15;3.20;;;25.20;91.90;;;;;;3528269;40;20079;-81
2021/06/18 06:20:05;;;;;;;10.50;3.75;;;25.30;91.20;;;;;;3512651;40;20095;-80
2021/06/18 06:22:34;;;;;;;8.00;3.45;;;25.40;91.40;;;;;;3514295;40;20078;-81
2021/06/18 06:25:05;;;;;;;11.63;4.15;;;25.50;91.30;;;;;;3514905;40;20182;-80
2021/06/18 06:27:34;;;;;;;5.97;3.20;;;25.50;90.40;;;;;;3515667;40;20400;-82
2021/06/18 06:30:03;;;;;;;7.25;3.75;;;25.60;90.00;;;;;;3532642;40;20075;-80
2021/06/18 06:32:35;;;;;;;10.15;3.97;;;25.60;90.10;;;;;;3522158;40;20087;-79
2021/06/18 06:35:03;;;;;;;9.43;3.50;;;25.70;90.60;;;;;;3514571;40;20415;-80
2021/06/18 06:37:33;;;;;;;16.77;3.20;;;25.70;90.20;;;;;;3523039;40;20098;-80
2021/06/18 06:40:01;;;;;;;9.27;3.40;;;25.80;90.60;;;;;;3514195;40;20414;-80
2021/06/18 06:42:30;;;;;;;18.65;4.40;;;26.00;90.30;;;;;;3510967;40;20119;-79
2021/06/18 06:44:57;;;;;;;20.40;4.68;;;26.10;90.40;;;;;;3522464;40;20386;-77
2021/06/18 06:47:25;;;;;;;24.80;4.45;;;26.20;90.30;;;;;;3523095;40;20512;-79
2021/06/18 06:49:57;;;;;;;14.00;3.28;;;26.30;90.00;;;;;;3513687;40;20308;-79
2021/06/18 06:52:25;;;;;;;22.02;4.18;;;26.40;89.30;;;;;;3510991;40;20098;-79
2021/06/18 06:54:53;;;;;;;10.70;4.23;;;26.40;89.40;;;;;;3523161;40;20071;-78
2021/06/18 06:57:23;;;;;;;11.27;3.47;;;26.50;89.50;;;;;;3511935;40;20357;-81
2021/06/18 07:00:16;;;;;;;16.77;4.75;;;26.50;89.40;;;;;;3531478;40;20067;-80
2021/06/18 07:02:44;;;;;;;8.30;3.55;;;26.70;89.40;;;;;;3522427;40;20419;-79
2021/06/18 07:05:15;;;;;;;11.25;4.50;;;26.70;88.50;;;;;;3513278;40;20140;-79
2021/06/18 07:07:43;;;;;;;24.83;5.78;;;26.80;88.50;;;;;;3521261;40;20042;-81
2021/06/18 07:10:12;;;;;;;13.60;4.07;;;26.90;86.70;;;;;;3504463;40;20087;-80
2021/06/18 07:12:44;;;;;;;11.55;3.60;;;27.00;83.60;;;;;;3506394;40;20076;-79
2021/06/18 07:15:15;;;;;;;7.88;3.22;;;27.00;81.70;;;;;;3508632;40;20069;-81
2021/06/18 07:17:44;;;;;;;5.97;3.13;;;27.00;79.70;;;;;;3521255;40;20084;-80
2021/06/18 07:20:13;;;;;;;;;;;27.00;80.30;;;;;;3508530;40;20097;-82
2021/06/18 07:22:41;;;;;;;126.45;19.85;;;27.00;80.30;;;;;;3502804;40;19974;-80
2021/06/18 07:25:12;;;;;;;6.05;3.22;;;27.10;80.80;;;;;;3513046;40;20299;-80
2021/06/18 07:27:41;;;;;;;51.65;8.32;;;27.20;81.10;;;;;;3521732;40;20096;-84
2021/06/18 07:30:11;;;;;;;12.40;4.05;;;27.30;80.40;;;;;;3513066;40;20071;-81
2021/06/18 07:32:42;;;;;;;24.38;5.55;;;27.40;80.60;;;;;;3513096;40;20064;-81
2021/06/18 07:35:14;;;;;;;51.75;8.13;;;27.50;79.80;;;;;;3512539;40;20311;-84
2021/06/18 07:37:43;;;;;;;80.15;9.15;;;27.60;78.60;;;;;;3520690;40;20068;-80
2021/06/18 07:40:13;;;;;;;34.47;5.55;;;27.70;77.70;;;;;;3512885;40;20098;-80
2021/06/18 07:42:42;;;;;;;6.63;3.63;;;27.80;77.30;;;;;;3513235;40;20091;-80
2021/06/18 07:45:11;;;;;;;42.03;5.72;;;27.90;77.60;;;;;;3512733;40;20067;-79
2021/06/18 07:47:42;;;;;;;11.32;3.63;;;27.90;78.00;;;;;;3497253;40;20091;-80
2021/06/18 07:50:13;;;;;;;8.32;2.97;;;28.00;76.90;;;;;;3517934;40;20288;-82
2021/06/18 07:52:44;;;;;;;5.63;2.85;;;28.00;75.10;;;;;;3528024;40;20099;-83
2021/06/18 07:55:17;;;;;;;7.10;3.30;;;28.00;73.60;;;;;;3519430;40;20067;-80
2021/06/18 07:57:49;;;;;;;12.73;4.00;;;27.90;74.20;;;;;;3513104;40;20076;-80
2021/06/18 08:00:23;;;;;;;7.05;2.75;;;28.10;72.10;;;;;;3507883;40;20319;-80
2021/06/18 08:02:55;;;;;;;7.53;2.78;;;28.10;71.60;;;;;;3506215;40;20095;-81
2021/06/18 08:05:23;;;;;;;6.47;3.00;;;28.00;70.70;;;;;;3513253;40;20087;-82
2021/06/18 08:07:55;;;;;;;5.20;2.90;;;28.10;71.10;;;;;;3521919;40;20088;-81
2021/06/18 08:10:23;;;;;;;9.68;3.17;;;28.20;71.60;;;;;;3504696;40;20087;-81
2021/06/18 08:12:53;;;;;;;15.13;4.22;;;28.30;71.90;;;;;;3521839;40;20391;-81
2021/06/18 08:15:24;;;;;;;16.05;3.90;;;28.40;73.00;;;;;;3504821;40;20084;-80
2021/06/18 08:17:52;;;;;;;7.95;3.13;;;28.60;73.70;;;;;;3505953;40;20095;-80
2021/06/18 08:20:25;;;;;;;27.85;5.05;;;28.70;74.00;;;;;;3522093;40;20087;-80
2021/06/18 08:22:58;;;;;;;20.00;5.03;;;28.70;74.30;;;;;;3513859;40;20084;-81
2021/06/18 08:25:26;;;;;;;23.20;4.05;;;28.80;73.70;;;;;;3505522;40;20212;-79
2021/06/18 08:27:57;;;;;;;9.02;3.22;;;28.90;73.50;;;;;;3505936;40;20076;-81
2021/06/18 08:30:25;;;;;;;9.93;3.55;;;28.80;74.00;;;;;;3505221;40;20083;-80
2021/06/18 08:32:53;;;;;;;;;;;28.80;74.50;;;;;;3513553;40;20095;-80
2021/06/18 08:35:22;;;;;;;13.85;4.20;;;28.80;74.70;;;;;;3513671;40;19974;-80
2021/06/18 08:37:51;;;;;;;21.75;4.72;;;28.90;76.70;;;;;;3505791;40;20424;-80
2021/06/18 08:40:21;;;;;;;18.52;4.28;;;28.90;77.60;;;;;;3505180;40;20092;-81
2021/06/18 08:42:50;;;;;;;11.98;3.67;;;29.00;78.60;;;;;;3513009;40;20395;-80
2021/06/18 08:45:20;;;;;;;8.35;3.22;;;29.10;78.30;;;;;;3513060;40;20091;-80
2021/06/18 08:47:51;;;;;;;22.75;7.60;;;29.10;77.30;;;;;;3513843;40;20095;-82
2021/06/18 08:50:23;;;;;;;68.20;48.92;;;29.20;77.20;;;;;;3513092;40;20075;-80
2021/06/18 08:52:56;;;;;;;12.50;4.53;;;29.20;77.60;;;;;;3505681;40;20064;-80
2021/06/18 08:55:29;;;;;;;14.43;4.03;;;29.40;76.90;;;;;;3519141;40;20099;-82
2021/06/18 08:57:59;;;;;;;11.65;4.93;;;29.40;76.80;;;;;;3506136;40;20096;-81
2021/06/18 09:00:34;;;;;;;19.38;5.18;;;29.50;76.40;;;;;;3519331;40;20069;-80
2021/06/18 09:03:35;;;;;;;23.05;5.22;;;29.60;76.20;;;;;;3525518;40;20091;-82
2021/06/18 09:06:26;;;;;;;96.10;11.82;;;29.60;74.60;;;;;;3508701;40;20407;-80
2021/06/18 09:09:22;;;;;;;100.82;12.95;;;29.70;74.90;;;;;;3509787;40;20084;-80
2021/06/18 09:11:54;;;;;;;315.70;36.30;;;29.80;74.30;;;;;;3514408;40;20091;-80
2021/06/18 09:14:36;;;;;;;589.42;60.75;;;29.80;74.30;;;;;;3523382;40;20059;-80
2021/06/18 09:17:13;;;;;;;67.45;8.52;;;29.90;73.70;;;;;;3522648;40;20032;-81
2021/06/18 09:22:31;;;;;;;102.40;10.95;;;30.10;72.40;;;;;;3532775;40;20035;-79
2021/06/18 09:25:08;;;;;;;21.02;4.90;;;30.10;70.50;;;;;;3525689;40;20044;-81
2021/06/18 09:27:44;;;;;;;49.15;6.05;;;30.20;70.00;;;;;;3526097;40;20059;-80
2021/06/18 09:30:30;;;;;;;16.35;4.88;;;30.30;70.80;;;;;;4399499;23;20368;-81
2021/06/18 09:33:28;;;;;;;21.85;5.15;;;30.40;72.10;;;;;;3520746;40;20072;-81
2021/06/18 09:36:04;;;;;;;35.53;5.45;;;30.40;71.30;;;;;;3512661;41;20080;-81
2021/06/18 09:38:48;;;;;;;29.55;9.18;;;30.50;71.00;;;;;;3503762;41;20053;-81
2021/06/18 09:41:35;;;;;;;6.55;3.20;;;30.60;71.40;;;;;;3507798;41;20077;-79
2021/06/18 09:44:07;;;;;;;12.82;3.95;;;30.70;70.80;;;;;;3501286;41;20028;-80
2021/06/18 09:46:47;;;;;;;18.75;4.32;;;30.70;70.50;;;;;;3507954;41;20073;-83
2021/06/18 09:49:31;;;;;;;12.13;3.45;;;30.80;70.20;;;;;;3496759;41;20064;-81
2021/06/18 09:52:04;;;;;;;19.10;4.60;;;30.80;70.00;;;;;;3492834;41;20396;-81
2021/06/18 09:54:39;;;;;;;24.00;5.22;;;30.90;70.40;;;;;;3640177;23;20083;-81
2021/06/18 09:57:09;;;;;;;9.45;3.60;;;30.90;70.60;;;;;;3517821;40;20382;-81
2021/06/18 09:59:55;;;;;;;11.35;3.45;;;31.00;70.10;;;;;;3516171;40;20305;-82
2021/06/18 10:02:35;;;;;;;9.77;3.13;;;31.10;69.70;;;;;;3515949;40;20072;-80
2021/06/18 10:05:06;;;;;;;13.35;3.70;;;31.20;69.20;;;;;;3516802;40;20067;-81
2021/06/18 10:07:35;;;;;;;8.48;3.17;;;31.20;68.00;;;;;;3516427;40;20099;-80
2021/06/18 10:10:08;;;;;;;6.15;3.15;;;31.30;68.20;;;;;;3531222;40;20075;-82
2021/06/18 10:12:36;;;;;;;15.55;3.95;;;31.40;66.50;;;;;;3532150;40;20035;-81
2021/06/18 10:15:07;;;;;;;;;;;31.80;66.10;;;;;;3527200;40;20075;-80
2021/06/18 10:17:39;;;;;;;12.00;3.15;;;32.50;65.40;;;;;;3518698;40;19970;-82
2021/06/18 10:20:10;;;;;;;4.10;2.83;;;33.20;62.90;;;;;;3524153;40;20095;-81
2021/06/18 10:22:50;;;;;;;9.65;3.17;;;34.10;60.80;;;;;;3519278;40;20074;-82
2021/06/18 10:25:23;;;;;;;4.47;2.45;;;35.00;59.00;;;;;;3526152;40;20367;-81
2021/06/18 10:27:52;;;;;;;5.88;3.08;;;35.70;57.20;;;;;;3516034;40;20474;-81
2021/06/18 10:30:27;;;;;;;8.60;2.47;;;36.20;56.60;;;;;;3515435;40;20071;-83
2021/06/18 10:32:57;;;;;;;4.25;2.38;;;36.70;55.40;;;;;;3532206;40;20075;-81
2021/06/18 10:35:52;;;;;;;12.52;7.40;;;37.10;54.80;;;;;;3515736;40;20086;-81
2021/06/18 10:38:29;;;;;;;8.07;3.03;;;37.90;53.20;;;;;;3516021;40;20095;-81
2021/06/18 10:41:01;;;;;;;7.82;2.47;;;38.40;52.00;;;;;;3701866;23;20072;-82
2021/06/18 10:43:47;;;;;;;6.97;2.70;;;38.90;49.30;;;;;;3515431;40;20107;-84
2021/06/18 10:46:20;;;;;;;5.80;2.75;;;39.30;48.00;;;;;;3514889;40;20075;-82
2021/06/18 10:49:11;;;;;;;5.00;2.75;;;39.70;47.30;;;;;;3515526;40;20358;-84
2021/06/18 10:51:49;;;;;;;7.97;2.50;;;40.10;46.10;;;;;;3513391;40;20091;-84
2021/06/18 10:54:34;;;;;;;8.77;2.83;;;40.40;44.60;;;;;;3521620;40;20071;-85
2021/06/18 10:57:16;;;;;;;8.18;2.30;;;41.00;44.90;;;;;;3508292;40;20308;-83
2021/06/18 10:59:47;;;;;;;10.57;2.30;;;41.70;42.30;;;;;;3523859;40;20335;-83
2021/06/18 11:02:51;;;;;;;12.15;2.63;;;41.80;41.10;;;;;;3516148;40;20075;-83
2021/06/18 11:05:40;;;;;;;199.07;16.60;;;42.30;39.60;;;;;;3496270;41;20286;-83
2021/06/18 11:08:31;;;;;;;72.75;7.20;;;42.80;39.00;;;;;;3477602;41;20459;-84
2021/06/18 11:10:59;;;;;;;34.47;5.25;;;43.50;37.30;;;;;;3486082;41;20330;-84
2021/06/18 11:13:29;;;;;;;13.98;3.05;;;43.90;36.80;;;;;;3494369;41;20167;-83
2021/06/18 11:15:59;;;;;;;33.72;4.82;;;44.00;36.70;;;;;;3493908;41;20104;-82
2021/06/18 11:18:36;;;;;;;13.82;2.67;;;44.40;37.00;;;;;;3493797;41;20120;-84
2021/06/18 11:21:10;;;;;;;22.98;3.45;;;45.00;36.70;;;;;;3484395;41;20097;-83
2021/06/18 11:24:15;;;;;;;11.93;3.40;;;45.60;36.00;;;;;;3482211;41;20100;-84
2021/06/18 11:26:43;;;;;;;7.72;2.45;;;46.00;35.00;;;;;;3488335;41;20092;-84
2021/06/18 11:29:27;;;;;;;11.27;4.03;;;46.10;35.30;;;;;;3496538;41;20064;-83
2021/06/18 11:31:58;;;;;;;3.67;2.15;;;46.40;35.10;;;;;;3480323;41;20092;-83
2021/06/18 11:34:29;;;;;;;4.68;2.00;;;46.50;32.30;;;;;;3495026;41;20068;-83
2021/06/18 11:37:06;;;;;;;16.95;15.02;;;47.20;31.20;;;;;;3519071;40;20090;-82
2021/06/18 11:39:34;;;;;;;18.10;8.05;;;47.10;32.40;;;;;;3525409;40;20024;-83
2021/06/18 11:42:09;;;;;;;9.82;5.28;;;47.30;32.20;;;;;;3515711;40;20047;-82
2021/06/18 11:44:39;;;;;;;5.72;3.58;;;47.60;32.30;;;;;;3531767;40;20055;-82
2021/06/18 11:47:08;;;;;;;3.72;2.05;;;48.20;31.30;;;;;;3525247;40;20035;-83
2021/06/18 11:49:47;;;;;;;6.95;3.25;;;48.00;31.40;;;;;;3517657;40;20055;-83
2021/06/18 11:52:15;;;;;;;7.47;2.30;;;47.50;31.30;;;;;;3535403;40;20076;-83
2021/06/18 11:54:45;;;;;;;11.02;2.78;;;47.70;31.80;;;;;;3524974;40;20079;-85
2021/06/18 11:57:22;;;;;;;5.95;2.65;;;48.10;32.20;;;;;;3507501;40;20098;-84
2021/06/18 11:59:56;;;;;;;6.18;2.60;;;48.20;32.20;;;;;;3517840;40;20107;-82
2021/06/18 12:02:26;;;;;;;4.38;2.63;;;48.60;31.40;;;;;;3500838;40;20094;-82
2021/06/18 12:05:21;;;;;;;27.48;4.32;;;48.80;30.80;;;;;;3517010;40;20080;-83
2021/06/18 12:07:50;;;;;;;17.20;3.97;;;49.00;30.50;;;;;;3514501;40;20063;-83
2021/06/18 12:10:33;;;;;;;3.88;2.58;;;49.20;30.60;;;;;;3506926;40;20088;-82
2021/06/18 12:13:02;;;;;;;8.80;2.63;;;49.70;29.60;;;;;;3541192;40;20034;-83
2021/06/18 12:15:31;;;;;;;4.68;3.00;;;49.40;30.00;;;;;;3538356;40;20343;-84
2021/06/18 12:18:01;;;;;;;4.55;3.00;;;48.90;30.40;;;;;;3528965;40;20083;-83
2021/06/18 12:20:36;;;;;;;4.35;2.40;;;48.80;30.40;;;;;;3530779;40;20046;-83
2021/06/18 12:23:07;;;;;;;4.68;2.53;;;48.70;30.40;;;;;;3531250;40;20086;-83
2021/06/18 12:25:36;;;;;;;5.88;2.15;;;49.30;30.60;;;;;;3530692;40;20054;-83
2021/06/18 12:28:08;;;;;;;3.08;2.25;;;50.20;30.00;;;;;;3529817;40;20087;-83
2021/06/18 12:30:40;;;;;;;6.57;2.40;;;50.00;29.90;;;;;;3534474;40;20087;-86
2021/06/18 12:33:09;;;;;;;3.90;2.45;;;50.10;29.80;;;;;;3532438;40;20063;-85
2021/06/18 12:35:44;;;;;;;5.70;2.55;;;50.10;29.60;;;;;;3520247;40;20397;-82
2021/06/18 12:38:13;;;;;;;5.28;2.40;;;49.90;29.90;;;;;;3530490;40;20298;-84
2021/06/18 12:40:49;;;;;;;5.00;2.17;;;49.70;29.90;;;;;;3524173;40;20075;-83
2021/06/18 12:43:20;;;;;;;3.15;2.13;;;50.30;30.10;;;;;;3531711;40;20095;-83
2021/06/18 13:20:46;;;;;;;5.85;2.20;;;49.90;29.30;;;;;;3474682;41;20097;-82
2021/06/18 14:10:27;;;;;;;2.80;1.80;;;51.50;28.50;;;;;;3464523;41;20146;-83
2021/06/18 14:12:57;;;;;;;5.07;2.15;;;51.60;28.40;;;;;;3463577;41;20082;-86
2021/06/18 14:15:29;;;;;;;4.93;2.42;;;51.20;28.40;;;;;;3451325;41;20113;-83
2021/06/18 14:21:51;;;;;;;4.00;1.85;;;50.90;28.40;;;;;;3466686;41;20426;-82
2021/06/18 14:24:20;;;;;;;7.13;2.47;;;51.00;28.30;;;;;;3434219;41;20080;-83
2021/06/18 14:47:24;;;;;;;2.72;1.80;;;50.10;28.50;;;;;;3524560;40;20205;-87
2021/06/18 14:49:59;;;;;;;2.83;1.90;;;50.60;28.00;;;;;;3526054;40;20052;-86
2021/06/18 14:52:28;;;;;;;2.75;1.80;;;50.80;28.00;;;;;;3515026;40;20087;-85
2021/06/18 14:54:58;;;;;;;6.40;2.50;;;50.70;27.70;;;;;;3515317;40;20071;-85
2021/06/18 14:57:26;;;;;;;5.05;2.40;;;50.60;28.00;;;;;;3503174;41;20054;-83
2021/06/18 14:59:56;;;;;;;6.32;2.10;;;50.30;28.10;;;;;;3518304;40;20091;-83
2021/06/18 15:02:28;;;;;;;3.05;1.70;;;50.20;28.00;;;;;;3512914;40;20080;-85
2021/06/18 15:04:56;;;;;;;6.65;2.38;;;50.30;28.00;;;;;;3510607;40;20084;-82
2021/06/18 15:07:27;;;;;;;6.03;2.28;;;50.40;27.90;;;;;;3510070;40;20083;-83